createdAt,value
2022-12-11T00:00:10.754Z,18.50
2022-12-11T00:02:37.473Z,25.20
2022-12-11T00:05:06.390Z,19.23
2022-12-11T00:07:33.166Z,19.75
2022-12-11T00:09:59.970Z,16.23
2022-12-11T00:12:26.832Z,16.58
2022-12-11T00:14:53.587Z,18.67
2022-12-11T00:17:20.322Z,17.42
2022-12-11T00:19:47.044Z,14.73
2022-12-11T00:22:15.264Z,17.50
2022-12-11T00:24:42.000Z,19.10
2022-12-11T00:27:08.749Z,16.88
2022-12-11T00:29:35.490Z,21.42
2022-12-11T00:32:02.297Z,19.27
2022-12-11T00:34:29.067Z,14.52
2022-12-11T00:36:55.854Z,17.27
2022-12-11T00:39:23.927Z,19.83
2022-12-11T00:41:50.653Z,17.25
2022-12-11T00:44:17.369Z,16.50
2022-12-11T00:46:44.194Z,18.40
2022-12-11T00:49:10.981Z,21.02
2022-12-11T00:51:37.843Z,18.75
2022-12-11T00:54:04.774Z,15.68
2022-12-11T00:56:32.991Z,13.25
2022-12-11T00:58:59.789Z,16.65
2022-12-11T01:01:26.550Z,16.17
2022-12-11T01:03:53.982Z,15.00
2022-12-11T01:06:22.750Z,16.13
2022-12-11T01:08:50.334Z,17.67
2022-12-11T01:11:18.086Z,19.20
2022-12-11T01:13:46.205Z,19.20
2022-12-11T01:16:15.482Z,14.52
2022-12-11T01:18:42.434Z,16.85
2022-12-11T01:21:10.853Z,19.58
2022-12-11T01:23:37.956Z,19.17
2022-12-11T01:26:06.468Z,20.33
2022-12-11T01:28:33.181Z,18.40
2022-12-11T01:31:01.478Z,16.15
2022-12-11T01:33:28.365Z,14.20
2022-12-11T01:35:55.135Z,23.30
2022-12-11T01:38:21.891Z,17.40
2022-12-11T01:40:50.525Z,20.60
2022-12-11T01:43:17.706Z,14.40
2022-12-11T01:45:45.953Z,18.08
2022-12-11T01:48:17.493Z,11.57
2022-12-11T01:50:47.442Z,16.35
2022-12-11T01:53:19.983Z,15.70
2022-12-11T01:55:48.510Z,14.23
2022-12-11T01:58:16.842Z,12.30
2022-12-11T02:00:43.561Z,12.10
2022-12-11T02:03:10.529Z,8.57
2022-12-11T02:05:38.765Z,12.63
2022-12-11T02:08:07.597Z,9.45
2022-12-11T02:11:04.170Z,14.05
2022-12-11T02:13:37.002Z,12.98
2022-12-11T02:16:11.937Z,9.25
2022-12-11T02:18:44.355Z,10.73
2022-12-11T02:21:19.617Z,12.60
2022-12-11T02:24:11.133Z,15.90
2022-12-11T02:27:13.812Z,13.35
2022-12-11T02:29:49.343Z,10.18
2022-12-11T02:32:21.033Z,11.93
2022-12-11T02:34:55.206Z,9.82
2022-12-11T02:37:24.474Z,10.05
2022-12-11T02:39:54.104Z,13.68
2022-12-11T02:42:22.744Z,10.68
2022-12-11T02:44:53.720Z,10.93
2022-12-11T02:47:21.765Z,11.30
2022-12-11T02:49:50.047Z,12.48
2022-12-11T02:52:21.108Z,12.20
2022-12-11T02:54:49.330Z,10.70
2022-12-11T02:57:21.813Z,9.68
2022-12-11T02:59:49.865Z,9.23
2022-12-11T03:02:17.619Z,10.02
2022-12-11T03:04:45.389Z,9.52
2022-12-11T03:07:15.909Z,11.23
2022-12-11T03:09:45.417Z,10.45
2022-12-11T03:12:15.213Z,9.15
2022-12-11T03:14:43.102Z,9.27
2022-12-11T03:17:17.029Z,11.18
2022-12-11T03:22:20.526Z,10.25
2022-12-11T03:24:52.332Z,11.07
2022-12-11T03:27:24.179Z,8.75
2022-12-11T03:29:56.919Z,9.80
2022-12-11T03:32:29.350Z,11.57
2022-12-11T03:35:00.603Z,9.13
2022-12-11T03:37:31.276Z,8.68
2022-12-11T03:40:02.239Z,9.45
2022-12-11T03:42:29.609Z,12.20
2022-12-11T03:44:58.732Z,10.52
2022-12-11T03:47:28.602Z,10.57
2022-12-11T03:49:56.919Z,9.38
2022-12-11T03:52:25.264Z,9.20
2022-12-11T03:54:53.212Z,11.15
2022-12-11T03:57:25.210Z,7.80
2022-12-11T03:59:52.212Z,10.70
2022-12-11T04:02:18.951Z,13.98
2022-12-11T04:04:47.033Z,8.32
2022-12-11T04:07:13.894Z,8.02
2022-12-11T04:09:40.619Z,11.50
2022-12-11T04:12:07.365Z,7.97
2022-12-11T04:14:34.134Z,12.05
2022-12-11T04:17:01.562Z,11.82
2022-12-11T04:19:28.429Z,11.52
2022-12-11T04:21:56.546Z,9.30
2022-12-11T04:24:23.257Z,11.15
2022-12-11T04:26:49.983Z,11.60
2022-12-11T04:29:16.828Z,13.75
2022-12-11T04:31:43.549Z,13.90
2022-12-11T04:34:10.274Z,11.57
2022-12-11T04:36:37.420Z,15.38
2022-12-11T04:39:06.041Z,12.23
2022-12-11T04:41:32.978Z,13.55
2022-12-11T04:43:59.732Z,17.70
2022-12-11T04:46:26.575Z,15.45
2022-12-11T04:48:57.307Z,12.00
2022-12-11T04:51:25.053Z,12.13
2022-12-11T04:53:51.857Z,10.75
2022-12-11T04:56:20.326Z,14.98
2022-12-11T04:58:47.627Z,15.93
2022-12-11T05:01:16.444Z,14.57
2022-12-11T05:03:43.630Z,14.10
2022-12-11T05:06:11.461Z,13.73
2022-12-11T05:08:40.588Z,15.35
2022-12-11T05:11:09.493Z,10.93
2022-12-11T05:13:37.902Z,13.93
2022-12-11T05:16:05.561Z,13.43
2022-12-11T05:18:32.361Z,14.25
2022-12-11T05:21:00.965Z,15.02
2022-12-11T05:23:28.510Z,12.90
2022-12-11T05:25:56.008Z,12.63
2022-12-11T05:28:24.201Z,12.88
2022-12-11T05:30:56.578Z,11.73
2022-12-11T05:33:23.876Z,15.00
2022-12-11T05:35:50.822Z,14.38
2022-12-11T05:38:17.598Z,10.73
2022-12-11T05:40:44.818Z,15.63
2022-12-11T05:43:11.564Z,15.10
2022-12-11T05:45:38.307Z,18.60
2022-12-11T05:48:06.762Z,14.25
2022-12-11T05:50:33.571Z,15.00
2022-12-11T05:53:00.301Z,14.48
2022-12-11T05:55:27.029Z,13.18
2022-12-11T05:57:53.753Z,13.65
2022-12-11T06:00:20.663Z,19.95
2022-12-11T06:02:47.554Z,15.45
2022-12-11T06:05:15.946Z,17.42
2022-12-11T06:07:42.698Z,14.95
2022-12-11T06:10:10.057Z,19.73
2022-12-11T06:12:36.863Z,15.48
2022-12-11T06:15:04.074Z,18.40
2022-12-11T06:17:30.848Z,16.08
2022-12-11T06:19:57.550Z,18.35
2022-12-11T06:22:25.686Z,19.73
2022-12-11T06:24:52.447Z,21.88
2022-12-11T06:27:19.161Z,19.10
2022-12-11T06:29:46.678Z,16.73
2022-12-11T06:32:13.400Z,19.23
2022-12-11T06:34:40.119Z,15.18
2022-12-11T06:37:06.863Z,14.50
2022-12-11T06:39:34.965Z,21.92
2022-12-11T06:42:04.017Z,15.27
2022-12-11T06:44:30.845Z,19.92
2022-12-11T06:46:57.607Z,19.58
2022-12-11T06:49:24.327Z,16.35
2022-12-11T06:51:51.087Z,15.32
2022-12-11T06:54:17.804Z,13.30
2022-12-11T06:56:45.885Z,17.95
2022-12-11T06:59:13.001Z,15.10
2022-12-11T07:01:39.843Z,13.80
2022-12-11T07:04:06.593Z,20.02
2022-12-11T07:06:33.330Z,15.90
2022-12-11T07:09:00.082Z,17.50
2022-12-11T07:11:26.814Z,14.35
2022-12-11T07:13:54.893Z,23.00
2022-12-11T07:16:21.721Z,15.95
2022-12-11T07:18:50.466Z,16.40
2022-12-11T07:21:17.802Z,15.93
2022-12-11T07:23:44.661Z,15.55
2022-12-11T07:26:13.602Z,12.45
2022-12-11T07:28:40.791Z,17.75
2022-12-11T07:31:10.890Z,16.20
2022-12-11T07:33:37.748Z,18.35
2022-12-11T07:36:07.161Z,18.48
2022-12-11T07:38:34.529Z,16.40
2022-12-11T07:41:01.733Z,15.55
2022-12-11T07:43:28.665Z,21.05
2022-12-11T07:45:55.405Z,18.67
2022-12-11T07:48:23.561Z,18.10
2022-12-11T07:50:50.317Z,16.83
2022-12-11T07:53:17.041Z,16.27
2022-12-11T07:55:43.840Z,14.23
2022-12-11T07:58:10.566Z,15.30
2022-12-11T08:00:37.295Z,20.15
2022-12-11T08:03:04.295Z,19.70
2022-12-11T08:05:32.368Z,13.55
2022-12-11T08:07:59.144Z,17.33
2022-12-11T08:10:26.028Z,19.77
2022-12-11T08:12:52.864Z,17.77
2022-12-11T08:15:19.598Z,13.82
2022-12-11T08:17:46.354Z,20.83
2022-12-11T08:20:13.064Z,17.85
2022-12-11T08:22:41.135Z,16.33
2022-12-11T08:25:08.672Z,19.90
2022-12-11T08:27:35.572Z,15.60
2022-12-11T08:30:02.341Z,13.82
2022-12-11T08:32:29.083Z,17.00
2022-12-11T08:34:55.784Z,14.82
2022-12-11T08:37:22.532Z,16.15
2022-12-11T08:39:50.845Z,14.93
2022-12-11T08:42:17.729Z,17.15
2022-12-11T08:44:44.500Z,19.45
2022-12-11T08:47:11.211Z,16.40
2022-12-11T08:49:38.499Z,16.30
2022-12-11T08:52:05.611Z,16.70
2022-12-11T08:54:32.588Z,16.80
2022-12-11T08:57:00.667Z,17.55
2022-12-11T08:59:27.380Z,15.68
2022-12-11T09:01:55.088Z,12.95
2022-12-11T09:04:21.909Z,15.98
2022-12-11T09:06:49.001Z,12.93
2022-12-11T09:09:15.773Z,14.02
2022-12-11T09:11:42.796Z,11.85
2022-12-11T09:14:10.903Z,19.13
2022-12-11T09:16:39.748Z,13.93
2022-12-11T09:19:08.067Z,19.10
2022-12-11T09:21:34.849Z,17.92
2022-12-11T09:24:01.767Z,16.73
2022-12-11T09:26:29.401Z,18.25
2022-12-11T09:28:56.866Z,20.83
2022-12-11T09:31:26.953Z,14.93
2022-12-11T09:33:55.856Z,15.95
2022-12-11T09:36:23.533Z,17.20
2022-12-11T09:38:51.461Z,17.40
2022-12-11T09:41:35.866Z,19.58
2022-12-11T09:44:14.750Z,15.02
2022-12-11T09:46:43.735Z,15.70
2022-12-11T09:49:28.448Z,13.27
2022-12-11T09:52:03.887Z,20.08
2022-12-11T09:54:31.497Z,16.25
2022-12-11T09:57:06.568Z,16.30
2022-12-11T09:59:40.729Z,11.70
2022-12-11T10:02:23.668Z,14.40
2022-12-11T10:04:59.138Z,13.05
2022-12-11T10:07:35.732Z,13.68
2022-12-11T10:10:12.609Z,13.48
2022-12-11T10:12:45.872Z,13.82
2022-12-11T10:15:32.895Z,15.50
2022-12-11T10:18:05.203Z,12.77
2022-12-11T10:20:34.330Z,14.85
2022-12-11T10:23:02.334Z,11.80
2022-12-11T10:25:31.944Z,14.77
2022-12-11T10:28:00.203Z,10.43
2022-12-11T10:30:34.746Z,12.82
2022-12-11T10:33:11.990Z,15.27
2022-12-11T10:35:45.232Z,9.35
2022-12-11T10:38:15.012Z,15.35
2022-12-11T10:40:47.329Z,12.18
2022-12-11T10:43:14.093Z,14.40
2022-12-11T10:45:49.544Z,12.75
2022-12-11T10:48:17.639Z,12.23
2022-12-11T10:50:55.970Z,10.25
2022-12-11T10:53:23.918Z,10.43
2022-12-11T10:55:50.833Z,12.85
2022-12-11T10:58:20.045Z,11.63
2022-12-11T11:00:59.757Z,12.88
2022-12-11T11:03:28.332Z,7.57
2022-12-11T11:06:03.084Z,9.55
2022-12-11T11:08:39.270Z,9.25
2022-12-11T11:11:06.080Z,14.40
2022-12-11T11:13:32.864Z,11.23
2022-12-11T11:16:01.016Z,8.73
2022-12-11T11:18:30.534Z,10.77
2022-12-11T11:20:57.668Z,10.02
2022-12-11T11:23:25.208Z,9.52
2022-12-11T11:25:54.569Z,9.52
2022-12-11T11:28:25.577Z,11.15
2022-12-11T11:31:02.317Z,9.68
2022-12-11T11:33:32.068Z,5.43
2022-12-11T11:36:00.541Z,12.75
2022-12-11T11:38:32.647Z,9.05
2022-12-11T11:41:11.539Z,9.40
2022-12-11T11:43:48.441Z,12.57
2022-12-11T11:46:20.280Z,11.25
2022-12-11T11:48:58.583Z,14.25
2022-12-11T11:51:30.308Z,11.52
2022-12-11T11:54:00.852Z,12.80
2022-12-11T11:56:31.625Z,11.95
2022-12-11T11:59:05.790Z,13.45
2022-12-11T12:01:33.862Z,7.30
2022-12-11T12:04:03.857Z,8.63
2022-12-11T12:06:39.302Z,10.27
2022-12-11T12:09:17.826Z,9.27
2022-12-11T12:11:52.073Z,12.80
2022-12-11T12:14:51.095Z,14.65
2022-12-11T12:17:20.591Z,10.63
2022-12-11T12:19:59.013Z,10.65
2022-12-11T12:22:39.422Z,10.52
2022-12-11T12:25:18.849Z,9.90
2022-12-11T12:27:53.925Z,11.10
2022-12-11T12:30:23.188Z,9.00
2022-12-11T12:33:03.011Z,12.30
2022-12-11T12:35:35.102Z,12.85
2022-12-11T12:38:10.410Z,10.60
2022-12-11T12:40:45.553Z,11.52
2022-12-11T12:43:29.850Z,12.70
2022-12-11T12:48:27.965Z,10.05
2022-12-11T12:50:56.724Z,10.18
2022-12-11T12:53:26.085Z,13.45
2022-12-11T12:55:53.825Z,13.77
2022-12-11T12:58:26.899Z,14.25
2022-12-11T13:00:54.386Z,15.23
2022-12-11T13:03:22.591Z,12.95
2022-12-11T13:05:58.932Z,11.95
2022-12-11T13:08:27.659Z,13.50
2022-12-11T13:11:07.513Z,9.25
2022-12-11T13:13:38.170Z,10.52
2022-12-11T13:16:24.144Z,11.50
2022-12-11T13:18:51.404Z,6.88
2022-12-11T13:21:31.496Z,14.00
2022-12-11T13:24:15.120Z,10.25
2022-12-11T13:26:42.381Z,11.23
2022-12-11T13:29:30.717Z,11.90
2022-12-11T13:31:59.452Z,9.23
2022-12-11T13:34:29.029Z,12.27
2022-12-11T13:36:57.126Z,9.57
2022-12-11T13:39:25.436Z,11.52
2022-12-11T13:41:55.183Z,11.95
2022-12-11T13:44:26.534Z,9.82
2022-12-11T13:46:54.955Z,13.13
2022-12-11T13:49:25.370Z,12.95
2022-12-11T13:51:54.933Z,12.30
2022-12-11T13:54:23.686Z,9.82
2022-12-11T13:56:55.169Z,7.90
2022-12-11T13:59:26.185Z,9.95
2022-12-11T14:01:55.861Z,4.70
2022-12-11T14:04:23.682Z,5.93
2022-12-11T14:06:50.758Z,8.40
2022-12-11T14:09:21.442Z,4.88
2022-12-11T14:11:56.484Z,7.13
2022-12-11T14:14:33.148Z,3.92
2022-12-11T14:17:00.770Z,8.85
2022-12-11T14:19:28.138Z,6.13
2022-12-11T14:21:56.868Z,7.95
2022-12-11T14:24:23.619Z,9.02
2022-12-11T14:26:53.294Z,9.55
2022-12-11T14:29:28.541Z,8.52
2022-12-11T14:31:56.897Z,8.40
2022-12-11T14:34:26.134Z,9.32
2022-12-11T14:36:54.338Z,9.35
2022-12-11T14:39:24.153Z,10.02
2022-12-11T14:41:57.612Z,13.35
2022-12-11T14:44:27.078Z,12.90
2022-12-11T14:46:58.370Z,10.23
2022-12-11T14:49:31.683Z,13.23
2022-12-11T14:51:59.620Z,11.70
2022-12-11T14:54:32.086Z,9.13
2022-12-11T14:57:02.267Z,10.90
2022-12-11T14:59:32.228Z,10.55
2022-12-11T15:02:00.781Z,11.70
2022-12-11T15:04:29.577Z,12.55
2022-12-11T15:06:56.399Z,12.63
2022-12-11T15:09:27.513Z,10.95
2022-12-11T15:11:56.454Z,9.98
2022-12-11T15:14:25.488Z,14.45
2022-12-11T15:16:55.587Z,12.52
2022-12-11T15:19:27.316Z,11.27
2022-12-11T15:21:55.411Z,8.48
2022-12-11T15:24:26.147Z,11.48
2022-12-11T15:26:56.885Z,16.60
2022-12-11T15:29:31.577Z,13.38
2022-12-11T15:32:16.749Z,11.43
2022-12-11T15:34:45.587Z,14.57
2022-12-11T15:37:23.588Z,12.35
2022-12-11T15:39:51.137Z,11.82
2022-12-11T15:42:24.218Z,12.55
2022-12-11T15:44:53.080Z,17.90
2022-12-11T15:47:23.065Z,9.93
2022-12-11T15:49:49.814Z,13.07
2022-12-11T15:52:16.527Z,13.52
2022-12-11T15:54:43.263Z,11.15
2022-12-11T15:57:14.907Z,17.42
2022-12-11T15:59:41.655Z,12.52
2022-12-11T16:02:12.180Z,16.05
2022-12-11T16:04:39.026Z,13.30
2022-12-11T16:07:06.741Z,13.20
2022-12-11T16:09:33.534Z,14.82
2022-12-11T16:12:00.300Z,11.80
2022-12-11T16:14:26.996Z,12.82
2022-12-11T16:16:53.902Z,11.80
2022-12-11T16:19:21.978Z,13.48
2022-12-11T16:21:48.720Z,9.30
2022-12-11T16:24:15.502Z,11.40
2022-12-11T16:26:42.220Z,15.50
2022-12-11T16:29:09.172Z,13.57
2022-12-11T16:31:35.931Z,7.90
2022-12-11T16:34:02.885Z,12.63
2022-12-11T16:36:30.978Z,14.98
2022-12-11T16:38:57.720Z,11.70
2022-12-11T16:41:24.466Z,13.20
2022-12-11T16:43:51.747Z,15.73
2022-12-11T16:46:19.253Z,12.68
2022-12-11T16:48:46.118Z,13.05
2022-12-11T16:51:12.831Z,14.15
2022-12-11T16:53:40.898Z,14.52
2022-12-11T16:56:08.374Z,12.40
2022-12-11T16:58:35.446Z,14.75
2022-12-11T17:01:08.101Z,12.98
2022-12-11T17:03:34.825Z,9.27
2022-12-11T17:06:01.547Z,15.07
2022-12-11T17:08:28.328Z,13.32
2022-12-11T17:10:56.408Z,11.93
2022-12-11T17:13:23.154Z,12.60
2022-12-11T17:15:49.940Z,12.35
2022-12-11T17:18:16.652Z,13.00
2022-12-11T17:20:44.777Z,14.07
2022-12-11T17:23:12.053Z,10.27
2022-12-11T17:25:40.195Z,10.43
2022-12-11T17:28:08.525Z,18.42
2022-12-11T17:30:38.977Z,12.88
2022-12-11T17:33:05.693Z,10.90
2022-12-11T17:35:32.851Z,11.85
2022-12-11T17:37:59.568Z,11.85
2022-12-11T17:40:26.515Z,7.22
2022-12-11T17:42:53.245Z,6.80
2022-12-11T17:45:21.439Z,10.20
2022-12-11T17:47:48.233Z,10.85
2022-12-11T17:50:14.991Z,8.75
2022-12-11T17:52:44.363Z,14.48
2022-12-11T17:55:11.794Z,14.05
2022-12-11T17:57:38.826Z,12.88
2022-12-11T18:00:06.998Z,10.73
2022-12-11T18:02:35.550Z,9.80
2022-12-11T18:05:02.631Z,8.43
2022-12-11T18:07:29.734Z,12.73
2022-12-11T18:09:56.799Z,12.80
2022-12-11T18:12:24.001Z,11.30
2022-12-11T18:14:51.115Z,12.98
2022-12-11T18:17:18.183Z,11.23
2022-12-11T18:19:46.719Z,11.32
2022-12-11T18:22:13.840Z,13.48
2022-12-11T18:24:40.869Z,9.57
2022-12-11T18:27:07.970Z,14.98
2022-12-11T18:29:35.015Z,11.93
2022-12-11T18:32:02.166Z,9.80
2022-12-11T18:34:29.325Z,14.93
2022-12-11T18:36:57.801Z,14.93
2022-12-11T18:39:24.962Z,10.88
2022-12-11T18:42:24.026Z,11.23
2022-12-11T18:44:39.090Z,12.75
2022-12-11T18:47:06.541Z,17.05
2022-12-11T18:49:33.578Z,13.57
2022-12-11T18:52:02.177Z,11.70
2022-12-11T18:54:29.278Z,11.88
2022-12-11T18:56:56.329Z,13.63
2022-12-11T18:59:23.546Z,10.63
2022-12-11T19:01:50.712Z,11.60
2022-12-11T19:04:17.872Z,16.52
2022-12-11T19:06:45.242Z,16.10
2022-12-11T19:09:13.787Z,17.63
2022-12-11T19:11:42.043Z,24.80
2022-12-11T19:14:09.641Z,13.23
2022-12-11T19:16:38.325Z,13.80
2022-12-11T19:19:08.339Z,10.88
2022-12-11T19:21:35.585Z,14.05
2022-12-11T19:24:02.358Z,14.43
2022-12-11T19:26:30.474Z,13.73
2022-12-11T19:28:57.293Z,13.73
2022-12-11T19:31:24.092Z,17.15
2022-12-11T19:33:51.104Z,17.45
2022-12-11T19:36:20.309Z,14.70
2022-12-11T19:38:47.730Z,17.67
2022-12-11T19:41:16.842Z,15.18
2022-12-11T19:43:45.491Z,14.27
2022-12-11T19:46:13.855Z,15.95
2022-12-11T19:48:40.775Z,16.05
2022-12-11T19:51:10.145Z,15.25
2022-12-11T19:53:40.582Z,15.38
2022-12-11T19:56:10.432Z,15.90
2022-12-11T19:58:38.372Z,16.77
2022-12-11T20:01:07.033Z,12.98
2022-12-11T20:03:34.571Z,17.90
2022-12-11T20:06:02.216Z,15.55
2022-12-11T20:08:44.161Z,21.05
2022-12-11T20:11:17.611Z,14.85
2022-12-11T20:13:45.872Z,18.67
2022-12-11T20:16:15.832Z,21.08
2022-12-11T20:18:43.346Z,13.02
2022-12-11T20:21:13.890Z,13.50
2022-12-11T20:23:41.078Z,18.77
2022-12-11T20:26:09.026Z,17.20
2022-12-11T20:28:36.165Z,15.13
2022-12-11T20:31:06.559Z,19.42
2022-12-11T20:33:35.097Z,13.80
2022-12-11T20:36:06.050Z,18.05
2022-12-11T20:38:34.633Z,15.90
2022-12-11T20:41:01.923Z,18.60
2022-12-11T20:43:28.961Z,21.25
2022-12-11T20:45:56.016Z,23.10
2022-12-11T20:48:23.160Z,19.25
2022-12-11T20:50:51.691Z,20.25
2022-12-11T20:53:18.824Z,18.42
2022-12-11T20:55:45.836Z,19.80
2022-12-11T20:58:12.850Z,14.80
2022-12-11T21:00:40.106Z,19.35
2022-12-11T21:03:07.435Z,11.55
2022-12-11T21:05:34.189Z,16.20
2022-12-11T21:08:02.367Z,19.58
2022-12-11T21:10:29.114Z,20.17
2022-12-11T21:12:55.917Z,13.38
2022-12-11T21:15:22.642Z,14.57
2022-12-11T21:17:49.470Z,17.23
2022-12-11T21:20:16.455Z,17.27
2022-12-11T21:22:43.257Z,15.50
2022-12-11T21:25:11.798Z,14.52
2022-12-11T21:27:38.842Z,15.48
2022-12-11T21:30:06.937Z,12.68
2022-12-11T21:32:33.777Z,15.25
2022-12-11T21:35:00.885Z,15.05
2022-12-11T21:37:27.660Z,12.60
2022-12-11T21:39:55.666Z,20.83
2022-12-11T21:42:23.903Z,16.55
2022-12-11T21:47:37.401Z,11.68
2022-12-11T21:50:04.661Z,17.15
2022-12-11T21:52:31.417Z,16.05
2022-12-11T21:54:58.162Z,17.25
2022-12-11T21:57:26.953Z,15.32
2022-12-11T21:59:53.776Z,12.30
2022-12-11T22:02:20.576Z,17.50
2022-12-11T22:04:47.483Z,16.10
2022-12-11T22:07:14.360Z,15.15
2022-12-11T22:09:41.086Z,13.82
2022-12-11T22:12:08.141Z,14.57
2022-12-11T22:14:36.226Z,17.67
2022-12-11T22:17:03.029Z,14.30
2022-12-11T22:19:32.672Z,18.92
2022-12-11T22:21:59.787Z,17.30
2022-12-11T22:24:26.497Z,13.80
2022-12-11T22:26:53.223Z,17.20
2022-12-11T22:29:19.962Z,22.73
2022-12-11T22:31:48.034Z,15.07
2022-12-11T22:34:14.754Z,15.95
2022-12-11T22:36:41.512Z,17.50
2022-12-11T22:39:08.379Z,15.50
2022-12-11T22:41:35.106Z,11.68
2022-12-11T22:44:01.840Z,13.93
2022-12-11T22:46:30.248Z,21.77
2022-12-11T22:48:59.240Z,15.40
2022-12-11T22:51:26.012Z,14.35
2022-12-11T22:53:52.737Z,16.65
2022-12-11T22:56:19.657Z,15.63
2022-12-11T22:58:46.546Z,15.60
2022-12-11T23:01:15.309Z,14.55
2022-12-11T23:03:42.082Z,14.30
2022-12-11T23:06:13.538Z,12.10
2022-12-11T23:08:41.335Z,14.88
2022-12-11T23:11:11.308Z,13.35
2022-12-11T23:13:38.059Z,16.13
2022-12-11T23:16:05.356Z,14.95
2022-12-11T23:18:32.077Z,15.70
2022-12-11T23:20:59.139Z,18.55
2022-12-11T23:23:27.232Z,14.15
2022-12-11T23:25:54.023Z,20.42
2022-12-11T23:28:20.782Z,14.23
2022-12-11T23:30:47.673Z,19.20
2022-12-11T23:33:14.515Z,22.38
2022-12-11T23:39:05.130Z,19.25
2022-12-11T23:41:31.882Z,20.23
2022-12-11T23:43:58.705Z,12.60
2022-12-11T23:46:25.631Z,16.25
2022-12-11T23:48:53.372Z,25.27
2022-12-11T23:51:21.416Z,17.55
2022-12-11T23:53:48.506Z,13.32
2022-12-11T23:56:21.187Z,16.13
2022-12-11T23:58:48.384Z,18.20
